Time;durP1;ratioP1;P1;durP2;ratioP2;P2;SDS_P1;SDS_P2;PMS_P1;PMS_P2;Temp;Humidity;BMP_temperature;BMP_pressure;BME280_temperature;BME280_humidity;BME280_pressure;Samples;Min_cycle;Max_cycle;Signal;HPM_P1;HPM_P2
2021/10/01 00:00:50;;;;;;;4.55;4.15;;;;;;;;;;5126980;28;24458;-60
2021/10/01 00:03:15;;;;;;;4.30;4.00;;;;;;;;;;5123843;28;24975;-60
2021/10/01 00:05:42;;;;;;;4.35;4.05;;;;;;;;;;5127283;28;25008;-60
2021/10/01 00:08:07;;;;;;;4.40;4.10;;;;;;;;;;5126052;28;24999;-60
2021/10/01 00:10:33;;;;;;;4.43;4.07;;;;;;;;;;5127133;28;24976;-60
2021/10/01 00:12:58;;;;;;;4.60;4.30;;;;;;;;;;5127138;28;24409;-60
2021/10/01 00:15:23;;;;;;;4.63;4.30;;;;;;;;;;5127624;27;24460;-59
2021/10/01 00:17:48;;;;;;;5.00;4.60;;;;;;;;;;5130922;27;24499;-60
2021/10/01 00:20:13;;;;;;;4.87;4.47;;;;;;;;;;5130526;27;24960;-59
2021/10/01 00:22:39;;;;;;;5.00;4.60;;;;;;;;;;5123096;27;24422;-59
2021/10/01 00:25:04;;;;;;;4.90;4.50;;;;;;;;;;5126650;27;24469;-60
2021/10/01 00:27:29;;;;;;;5.00;4.50;;;;;;;;;;5130360;27;24461;-60
2021/10/01 00:29:54;;;;;;;5.00;4.60;;;;;;;;;;5130235;27;24504;-60
2021/10/01 00:32:20;;;;;;;5.18;4.68;;;;;;;;;;5130090;27;24417;-59
2021/10/01 00:34:49;;;;;;;4.70;4.30;;;;;;;;;;5129555;27;24848;-59
2021/10/01 00:37:14;;;;;;;4.80;4.40;;;;;;;;;;5130772;27;25034;-60
2021/10/01 00:39:39;;;;;;;4.77;4.37;;;;;;;;;;5130128;27;24466;-60
2021/10/01 00:42:04;;;;;;;5.53;5.10;;;;;;;;;;5129497;27;24545;-60
2021/10/01 00:44:30;;;;;;;4.30;4.00;;;;;;;;;;5127559;27;24417;-60
2021/10/01 00:46:55;;;;;;;5.57;5.07;;;;;;;;;;5129886;27;24889;-60
2021/10/01 00:49:20;;;;;;;4.30;4.00;;;;;;;;;;5130078;27;24409;-60
2021/10/01 00:51:45;;;;;;;5.30;4.90;;;;;;;;;;5123125;27;24423;-60
2021/10/01 00:54:10;;;;;;;4.60;4.30;;;;;;;;;;5129813;27;24508;-60
2021/10/01 00:56:36;;;;;;;5.00;4.60;;;;;;;;;;5129575;27;24413;-60
2021/10/01 00:59:01;;;;;;;4.80;4.40;;;;;;;;;;5130175;27;24453;-60
2021/10/01 01:01:26;;;;;;;4.60;4.20;;;;;;;;;;5129605;27;24420;-59
2021/10/01 01:03:56;;;;;;;4.70;4.30;;;;;;;;;;5130084;27;24413;-60
2021/10/01 01:06:21;;;;;;;5.07;4.67;;;;;;;;;;5129902;27;24991;-59
2021/10/01 01:08:50;;;;;;;5.00;4.60;;;;;;;;;;5129447;27;25015;-60
2021/10/01 01:11:20;;;;;;;5.35;4.95;;;;;;;;;;5128781;27;24417;-60
2021/10/01 01:13:49;;;;;;;5.10;4.70;;;;;;;;;;5130087;27;24504;-60
2021/10/01 01:16:19;;;;;;;5.20;4.80;;;;;;;;;;5129138;27;24540;-60
2021/10/01 01:18:46;;;;;;;5.25;4.85;;;;;;;;;;5129211;27;24438;-60
2021/10/01 01:21:28;;;;;;;5.03;4.63;;;;;;;;;;5128847;27;24481;-61
2021/10/01 01:24:14;;;;;;;4.80;4.40;;;;;;;;;;5129411;27;24458;-60
2021/10/01 01:26:58;;;;;;;5.68;5.18;;;;;;;;;;5122541;27;24454;-59
2021/10/01 01:29:26;;;;;;;5.75;5.25;;;;;;;;;;5128227;27;24845;-61
2021/10/01 01:31:54;;;;;;;5.25;4.75;;;;;;;;;;5129266;27;24414;-60
2021/10/01 01:34:39;;;;;;;5.38;4.88;;;;;;;;;;5128935;27;24443;-60
2021/10/01 01:37:06;;;;;;;5.40;4.90;;;;;;;;;;5129166;27;25270;-60
2021/10/01 01:39:33;;;;;;;4.70;4.40;;;;;;;;;;5128779;27;24423;-60
2021/10/01 01:41:59;;;;;;;5.55;5.05;;;;;;;;;;5129190;27;24457;-59
2021/10/01 01:44:25;;;;;;;5.53;4.70;;;;;;;;;;5122456;27;24842;-60
2021/10/01 01:46:51;;;;;;;5.00;4.60;;;;;;;;;;5128338;27;24554;-59
2021/10/01 01:49:16;;;;;;;4.70;4.30;;;;;;;;;;5128455;27;24461;-59
2021/10/01 01:51:41;;;;;;;5.07;4.67;;;;;;;;;;5128330;27;24838;-60
2021/10/01 01:54:07;;;;;;;5.00;4.60;;;;;;;;;;5127904;27;24952;-59
2021/10/01 01:56:33;;;;;;;4.80;4.40;;;;;;;;;;5129415;27;24437;-60
2021/10/01 01:58:59;;;;;;;5.07;4.60;;;;;;;;;;5127944;27;24466;-60
2021/10/01 02:01:27;;;;;;;5.00;4.60;;;;;;;;;;5121391;27;24421;-61
2021/10/01 02:03:53;;;;;;;5.00;4.60;;;;;;;;;;5124370;27;24505;-59
2021/10/01 02:06:19;;;;;;;4.80;4.50;;;;;;;;;;5128302;27;24421;-64
2021/10/01 02:08:45;;;;;;;5.40;4.90;;;;;;;;;;5129200;27;25026;-60
2021/10/01 02:11:11;;;;;;;5.50;5.00;;;;;;;;;;5127696;27;24876;-59
2021/10/01 02:13:38;;;;;;;5.05;4.55;;;;;;;;;;5128034;27;24448;-59
2021/10/01 02:16:04;;;;;;;5.00;4.60;;;;;;;;;;5128293;27;24536;-59
2021/10/01 02:18:30;;;;;;;4.55;4.20;;;;;;;;;;5128026;27;24484;-60
2021/10/01 02:20:56;;;;;;;4.85;4.45;;;;;;;;;;5127772;27;24462;-60
2021/10/01 02:23:22;;;;;;;4.90;4.50;;;;;;;;;;5125986;27;24401;-58
2021/10/01 02:28:34;;;;;;;5.47;4.97;;;;;;;;;;5127628;27;24458;-59
2021/10/01 02:31:01;;;;;;;4.70;4.30;;;;;;;;;;5127655;27;24427;-59
2021/10/01 02:33:29;;;;;;;5.13;4.63;;;;;;;;;;5128207;27;24431;-59
2021/10/01 02:35:54;;;;;;;5.10;4.60;;;;;;;;;;5128352;27;24424;-59
2021/10/01 02:38:20;;;;;;;4.60;4.30;;;;;;;;;;5126937;27;24663;-59
2021/10/01 02:40:45;;;;;;;4.30;4.00;;;;;;;;;;5123611;27;24416;-59
2021/10/01 02:43:10;;;;;;;5.30;4.80;;;;;;;;;;5126364;27;24401;-58
2021/10/01 02:45:35;;;;;;;4.78;4.40;;;;;;;;;;5118260;27;24414;-59
2021/10/01 02:48:01;;;;;;;5.05;4.65;;;;;;;;;;5124398;27;24448;-58
2021/10/01 02:50:27;;;;;;;5.20;4.80;;;;;;;;;;5116303;27;24922;-58
2021/10/01 02:52:55;;;;;;;4.90;4.20;;;;;;;;;;5117069;27;24425;-58
2021/10/01 02:55:35;;;;;;;4.90;4.50;;;;;;;;;;5127735;27;25011;-59
2021/10/01 02:58:06;;;;;;;4.93;4.53;;;;;;;;;;5126792;27;24413;-59
2021/10/01 03:00:32;;;;;;;4.80;4.40;;;;;;;;;;5120663;27;24413;-58
2021/10/01 03:02:57;;;;;;;5.00;4.60;;;;;;;;;;5127443;27;24455;-60
2021/10/01 03:05:23;;;;;;;5.70;5.00;;;;;;;;;;5125374;27;24674;-58
2021/10/01 03:07:48;;;;;;;4.67;4.27;;;;;;;;;;5123206;27;24424;-59
2021/10/01 03:10:14;;;;;;;4.82;4.32;;;;;;;;;;5127393;27;25036;-58
2021/10/01 03:12:42;;;;;;;5.25;4.85;;;;;;;;;;5127906;27;24428;-58
2021/10/01 03:15:08;;;;;;;5.10;4.70;;;;;;;;;;5127021;27;24836;-58
2021/10/01 03:17:34;;;;;;;5.10;4.70;;;;;;;;;;5125537;27;25174;-58
2021/10/01 03:19:59;;;;;;;4.85;4.38;;;;;;;;;;5123202;27;24466;-59
2021/10/01 03:22:31;;;;;;;4.70;4.40;;;;;;;;;;5123408;27;24979;-58
2021/10/01 03:24:56;;;;;;;5.50;4.90;;;;;;;;;;5127839;27;24409;-58
2021/10/01 03:27:22;;;;;;;5.20;4.80;;;;;;;;;;5128136;27;24425;-58
2021/10/01 03:29:47;;;;;;;5.10;4.70;;;;;;;;;;5126862;28;25168;-59
2021/10/01 03:32:12;;;;;;;5.33;4.83;;;;;;;;;;5126434;28;24425;-58
2021/10/01 03:34:37;;;;;;;5.50;5.10;;;;;;;;;;5125565;28;24456;-59
2021/10/01 03:37:03;;;;;;;4.90;4.50;;;;;;;;;;5119972;28;24508;-58
2021/10/01 03:39:28;;;;;;;5.33;4.83;;;;;;;;;;5114382;28;24830;-58
2021/10/01 03:41:53;;;;;;;5.57;5.07;;;;;;;;;;5117109;28;24405;-58
2021/10/01 03:44:18;;;;;;;5.30;4.90;;;;;;;;;;5117648;28;24409;-59
2021/10/01 03:46:47;;;;;;;5.00;4.60;;;;;;;;;;5119417;28;24770;-58
2021/10/01 03:49:13;;;;;;;5.22;4.82;;;;;;;;;;5125376;27;24421;-59
2021/10/01 03:51:38;;;;;;;5.20;4.80;;;;;;;;;;5130164;27;24413;-59
2021/10/01 03:54:03;;;;;;;4.90;4.50;;;;;;;;;;5128060;27;24466;-59
2021/10/01 03:56:28;;;;;;;5.50;5.10;;;;;;;;;;5126973;27;24421;-59
2021/10/01 03:58:53;;;;;;;5.43;5.00;;;;;;;;;;5116560;27;24478;-58
2021/10/01 04:01:18;;;;;;;4.90;4.60;;;;;;;;;;5128897;27;24421;-58
2021/10/01 04:03:44;;;;;;;5.80;5.33;;;;;;;;;;5122483;27;24409;-59
2021/10/01 04:06:09;;;;;;;5.60;5.10;;;;;;;;;;5126931;27;25285;-58
2021/10/01 04:08:34;;;;;;;5.60;5.10;;;;;;;;;;5111098;28;24485;-59
2021/10/01 04:11:00;;;;;;;5.20;4.70;;;;;;;;;;5119750;27;25137;-58
2021/10/01 04:13:25;;;;;;;5.00;4.60;;;;;;;;;;5129771;27;24417;-59
2021/10/01 04:15:51;;;;;;;5.75;5.25;;;;;;;;;;5119979;27;24968;-59
2021/10/01 04:18:16;;;;;;;5.80;5.30;;;;;;;;;;5123815;27;24448;-59
2021/10/01 04:20:43;;;;;;;5.20;4.80;;;;;;;;;;5128936;27;24429;-59
2021/10/01 04:23:09;;;;;;;5.20;4.80;;;;;;;;;;5129122;27;24500;-58
2021/10/01 04:25:34;;;;;;;5.20;4.70;;;;;;;;;;5128804;27;24511;-58
2021/10/01 04:28:00;;;;;;;5.00;4.50;;;;;;;;;;5127548;27;24528;-58
2021/10/01 04:30:25;;;;;;;5.80;5.30;;;;;;;;;;5125555;27;24514;-59
2021/10/01 04:33:00;;;;;;;5.60;5.10;;;;;;;;;;5121833;27;24821;-59
2021/10/01 04:35:26;;;;;;;5.40;5.00;;;;;;;;;;5123296;27;24444;-59
2021/10/01 04:37:51;;;;;;;5.20;4.80;;;;;;;;;;5124345;27;26465;-59
2021/10/01 04:40:16;;;;;;;5.25;4.85;;;;;;;;;;5124369;27;24413;-59
2021/10/01 04:42:43;;;;;;;5.03;4.63;;;;;;;;;;5126643;27;24440;-60
2021/10/01 04:45:08;;;;;;;5.43;4.93;;;;;;;;;;5127773;27;24417;-60
2021/10/01 04:47:34;;;;;;;5.40;4.90;;;;;;;;;;5127256;27;24492;-60
2021/10/01 04:49:59;;;;;;;5.90;5.30;;;;;;;;;;5125187;27;24508;-60
2021/10/01 04:52:24;;;;;;;5.22;4.82;;;;;;;;;;5121060;27;24445;-60
2021/10/01 04:54:49;;;;;;;5.80;5.30;;;;;;;;;;5126965;27;24544;-60
2021/10/01 04:57:14;;;;;;;5.00;4.60;;;;;;;;;;5120581;27;24424;-60
2021/10/01 04:59:39;;;;;;;5.40;5.00;;;;;;;;;;5126450;27;24421;-60
2021/10/01 05:02:05;;;;;;;5.50;5.10;;;;;;;;;;5125876;27;25009;-60
2021/10/01 05:04:30;;;;;;;5.47;5.07;;;;;;;;;;5125168;27;24424;-60
2021/10/01 05:06:55;;;;;;;5.10;4.70;;;;;;;;;;5122684;27;26163;-60
2021/10/01 05:09:20;;;;;;;5.67;5.17;;;;;;;;;;5127126;27;24444;-60
2021/10/01 05:11:45;;;;;;;5.25;4.75;;;;;;;;;;5120636;27;24432;-59
2021/10/01 05:14:10;;;;;;;5.10;4.70;;;;;;;;;;5126682;27;24780;-60
2021/10/01 05:16:36;;;;;;;5.18;4.68;;;;;;;;;;5126300;27;24469;-60
2021/10/01 05:19:01;;;;;;;5.60;5.10;;;;;;;;;;5127274;27;24421;-59
2021/10/01 05:21:26;;;;;;;5.20;4.80;;;;;;;;;;5129694;27;24409;-60
2021/10/01 05:23:51;;;;;;;5.03;4.63;;;;;;;;;;5129153;27;24963;-59
2021/10/01 05:26:16;;;;;;;4.78;4.38;;;;;;;;;;5129725;27;24417;-58
2021/10/01 05:28:41;;;;;;;5.45;5.00;;;;;;;;;;5121613;27;24428;-62
2021/10/01 05:31:06;;;;;;;5.00;4.60;;;;;;;;;;5125544;27;24998;-59
2021/10/01 05:33:32;;;;;;;4.93;4.53;;;;;;;;;;5123517;27;24412;-60
2021/10/01 05:35:57;;;;;;;5.10;4.70;;;;;;;;;;5121583;27;24946;-59
2021/10/01 05:38:24;;;;;;;5.40;4.90;;;;;;;;;;5119753;27;24505;-59
2021/10/01 05:40:49;;;;;;;4.90;4.50;;;;;;;;;;5108910;27;24397;-60
2021/10/01 05:43:16;;;;;;;4.80;4.40;;;;;;;;;;5123566;27;24463;-59
2021/10/01 05:45:41;;;;;;;5.10;4.60;;;;;;;;;;5119069;27;24412;-60
2021/10/01 05:48:06;;;;;;;4.80;4.40;;;;;;;;;;5120928;27;24426;-60
2021/10/01 05:50:33;;;;;;;4.60;4.20;;;;;;;;;;5122787;27;24473;-60
2021/10/01 05:53:04;;;;;;;4.70;4.30;;;;;;;;;;5125899;27;24521;-60
2021/10/01 05:55:29;;;;;;;4.68;4.28;;;;;;;;;;5126580;27;24505;-60
2021/10/01 05:57:54;;;;;;;5.10;4.60;;;;;;;;;;5125260;27;24401;-59
2021/10/01 06:00:20;;;;;;;4.40;4.00;;;;;;;;;;5125849;27;24416;-60
2021/10/01 06:02:45;;;;;;;4.07;3.77;;;;;;;;;;5125508;27;24462;-60
2021/10/01 06:05:11;;;;;;;4.60;4.20;;;;;;;;;;5117006;27;24485;-60
2021/10/01 06:07:37;;;;;;;4.70;4.30;;;;;;;;;;5120379;27;25439;-60
2021/10/01 06:10:03;;;;;;;4.70;4.30;;;;;;;;;;5107029;27;24416;-60
2021/10/01 06:12:28;;;;;;;5.60;5.10;;;;;;;;;;5122855;27;24481;-60
2021/10/01 06:14:53;;;;;;;4.50;4.10;;;;;;;;;;5121465;27;24429;-58
2021/10/01 06:17:18;;;;;;;5.07;4.40;;;;;;;;;;5122087;27;24962;-58
2021/10/01 06:19:44;;;;;;;4.18;3.88;;;;;;;;;;5119010;27;24439;-58
2021/10/01 06:22:10;;;;;;;4.15;3.85;;;;;;;;;;5119522;27;24540;-58
2021/10/01 06:24:36;;;;;;;4.80;4.40;;;;;;;;;;5125945;27;24513;-57
2021/10/01 06:27:01;;;;;;;4.90;4.50;;;;;;;;;;5128890;27;24500;-58
2021/10/01 06:29:27;;;;;;;4.63;4.23;;;;;;;;;;5128757;27;24399;-59
2021/10/01 06:31:52;;;;;;;4.90;4.50;;;;;;;;;;5128422;27;24509;-59
2021/10/01 06:34:17;;;;;;;4.83;4.40;;;;;;;;;;5124788;27;24456;-59
2021/10/01 06:36:43;;;;;;;4.90;4.50;;;;;;;;;;5116303;27;24432;-59
2021/10/01 06:39:08;;;;;;;4.73;4.23;;;;;;;;;;5124338;27;24445;-59
2021/10/01 06:41:34;;;;;;;5.05;4.65;;;;;;;;;;5120684;27;24441;-59
2021/10/01 06:44:01;;;;;;;4.30;4.00;;;;;;;;;;5120289;27;24420;-58
2021/10/01 06:46:42;;;;;;;4.97;4.50;;;;;;;;;;5122199;27;24992;-58
2021/10/01 06:49:19;;;;;;;4.43;4.03;;;;;;;;;;5124047;27;24431;-59
2021/10/01 08:20:27;;;;;;;4.15;3.85;;;;;;;;;;5123076;28;24959;-59
2021/10/01 08:22:52;;;;;;;4.17;3.77;;;;;;;;;;5119642;28;24385;-59
2021/10/01 08:25:18;;;;;;;4.00;3.60;;;;;;;;;;5118063;28;24821;-59
2021/10/01 08:27:43;;;;;;;3.83;3.43;;;;;;;;;;5121424;28;24420;-59
2021/10/01 08:30:09;;;;;;;4.23;3.60;;;;;;;;;;5123401;28;24954;-59
2021/10/01 08:32:34;;;;;;;4.05;3.60;;;;;;;;;;5121627;28;24396;-59
2021/10/01 08:34:59;;;;;;;3.97;3.60;;;;;;;;;;5118610;28;24429;-59
2021/10/01 08:37:25;;;;;;;4.87;3.60;;;;;;;;;;5121478;27;24415;-59
2021/10/01 08:39:50;;;;;;;3.72;3.40;;;;;;;;;;5121131;27;24767;-59
2021/10/01 08:42:15;;;;;;;4.60;3.50;;;;;;;;;;5127136;27;24433;-59
2021/10/01 08:44:41;;;;;;;3.80;3.50;;;;;;;;;;5111575;27;24969;-58
2021/10/01 08:47:07;;;;;;;4.10;3.55;;;;;;;;;;5124628;27;24496;-58
2021/10/01 08:49:33;;;;;;;3.42;3.13;;;;;;;;;;5121982;27;24520;-59
2021/10/01 08:51:58;;;;;;;3.75;3.30;;;;;;;;;;5122605;27;24852;-60
2021/10/01 08:54:24;;;;;;;3.20;3.00;;;;;;;;;;5126600;27;24407;-60
2021/10/01 08:56:49;;;;;;;3.40;3.10;;;;;;;;;;5124858;27;25056;-60
2021/10/01 08:59:15;;;;;;;2.80;2.50;;;;;;;;;;5126161;27;24417;-59
2021/10/01 09:01:40;;;;;;;3.27;2.77;;;;;;;;;;5120946;27;24410;-58
2021/10/01 09:04:07;;;;;;;3.88;2.85;;;;;;;;;;5122046;27;24393;-60
2021/10/01 09:06:32;;;;;;;3.70;2.50;;;;;;;;;;5121538;27;24421;-61
2021/10/01 09:08:58;;;;;;;2.60;2.00;;;;;;;;;;5119320;27;24470;-61
2021/10/01 09:11:27;;;;;;;2.47;2.17;;;;;;;;;;5124054;27;24456;-58
2021/10/01 09:13:53;;;;;;;2.20;2.00;;;;;;;;;;5120438;27;24955;-59
2021/10/01 09:16:18;;;;;;;2.40;2.00;;;;;;;;;;5126259;27;24425;-58
2021/10/01 09:18:45;;;;;;;2.20;2.00;;;;;;;;;;5121027;27;24421;-59
2021/10/01 09:21:12;;;;;;;2.35;2.00;;;;;;;;;;5125842;27;24500;-59
2021/10/01 09:23:46;;;;;;;2.40;2.20;;;;;;;;;;5124506;27;24497;-59
2021/10/01 09:26:13;;;;;;;2.40;2.20;;;;;;;;;;5122103;27;24400;-59
2021/10/01 09:28:50;;;;;;;2.70;1.70;;;;;;;;;;5120494;27;24995;-58
2021/10/01 09:31:34;;;;;;;3.13;2.27;;;;;;;;;;5122496;27;24398;-59
2021/10/01 09:34:00;;;;;;;2.58;2.00;;;;;;;;;;5125131;27;24840;-58
2021/10/01 09:36:28;;;;;;;2.03;1.83;;;;;;;;;;5126134;27;24452;-59
2021/10/01 09:38:54;;;;;;;1.98;1.77;;;;;;;;;;5124158;27;24397;-60
2021/10/01 09:41:25;;;;;;;2.90;2.08;;;;;;;;;;5121932;27;24445;-58
2021/10/01 09:44:22;;;;;;;2.65;1.90;;;;;;;;;;5122003;27;24413;-61
2021/10/01 09:46:48;;;;;;;2.20;2.00;;;;;;;;;;5076448;27;24474;-58
2021/10/01 09:49:15;;;;;;;3.50;2.00;;;;;;;;;;5125632;27;25005;-61
2021/10/01 09:51:46;;;;;;;2.00;1.90;;;;;;;;;;5124018;27;24389;-59
2021/10/01 09:54:12;;;;;;;2.30;2.10;;;;;;;;;;5124849;27;24421;-59
2021/10/01 09:56:37;;;;;;;2.63;2.38;;;;;;;;;;5120711;27;24411;-61
2021/10/01 09:59:05;;;;;;;3.67;2.20;;;;;;;;;;5121664;27;24385;-59
2021/10/01 10:01:31;;;;;;;2.70;2.30;;;;;;;;;;5122144;27;25091;-58
2021/10/01 10:03:56;;;;;;;3.03;2.20;;;;;;;;;;5125523;27;24484;-58
2021/10/01 10:06:21;;;;;;;3.60;2.40;;;;;;;;;;5124968;27;24412;-59
2021/10/01 10:08:46;;;;;;;4.90;2.40;;;;;;;;;;5123205;27;24512;-59
2021/10/01 10:11:13;;;;;;;4.70;2.60;;;;;;;;;;5121651;27;24385;-60
2021/10/01 10:13:48;;;;;;;2.58;2.10;;;;;;;;;;5121580;27;24800;-59
2021/10/01 10:16:15;;;;;;;4.68;2.70;;;;;;;;;;5119562;27;24528;-60
2021/10/01 10:18:41;;;;;;;3.33;2.10;;;;;;;;;;5121640;27;24398;-59
2021/10/01 10:21:06;;;;;;;3.30;2.20;;;;;;;;;;5124710;27;24401;-60
2021/10/01 10:23:32;;;;;;;2.50;2.30;;;;;;;;;;5125279;27;24761;-59
2021/10/01 10:25:58;;;;;;;2.60;2.40;;;;;;;;;;5120844;27;24785;-59
2021/10/01 10:28:23;;;;;;;4.05;2.95;;;;;;;;;;5121507;27;24401;-59
2021/10/01 10:30:49;;;;;;;4.30;3.07;;;;;;;;;;5122915;27;24581;-59
2021/10/01 10:33:33;;;;;;;2.72;2.30;;;;;;;;;;5124915;27;24473;-61
2021/10/01 10:35:58;;;;;;;2.95;2.30;;;;;;;;;;5123935;27;25007;-59
2021/10/01 10:38:32;;;;;;;2.75;2.55;;;;;;;;;;5121218;27;24497;-59
2021/10/01 10:41:17;;;;;;;2.65;2.35;;;;;;;;;;5119086;27;24932;-59
2021/10/01 10:43:46;;;;;;;3.05;2.30;;;;;;;;;;5120799;27;24834;-59
2021/10/01 10:46:31;;;;;;;4.20;2.60;;;;;;;;;;5124402;27;24685;-59
2021/10/01 10:49:24;;;;;;;2.67;2.03;;;;;;;;;;5123174;27;24453;-59
2021/10/01 10:52:06;;;;;;;3.90;2.50;;;;;;;;;;5122910;27;24480;-59
2021/10/01 10:54:33;;;;;;;4.85;2.47;;;;;;;;;;5120543;27;24943;-59
2021/10/01 10:57:17;;;;;;;2.92;2.50;;;;;;;;;;5118394;27;24447;-59
2021/10/01 10:59:42;;;;;;;3.95;2.80;;;;;;;;;;5121662;27;24416;-59
2021/10/01 11:02:18;;;;;;;3.10;2.60;;;;;;;;;;5121163;27;24470;-59
2021/10/01 11:04:47;;;;;;;4.55;3.00;;;;;;;;;;5101534;28;24440;-59
2021/10/01 11:07:32;;;;;;;2.60;2.40;;;;;;;;;;5103077;28;24404;-59
2021/10/01 11:10:17;;;;;;;2.78;2.50;;;;;;;;;;5098267;28;24406;-59
2021/10/01 11:12:42;;;;;;;2.55;2.30;;;;;;;;;;5113839;27;25053;-59
2021/10/01 11:15:11;;;;;;;2.72;2.50;;;;;;;;;;5122968;27;24548;-59
2021/10/01 11:17:36;;;;;;;4.30;2.55;;;;;;;;;;5123883;27;24404;-59
2021/10/01 11:20:01;;;;;;;2.70;2.20;;;;;;;;;;5121587;27;24466;-59
2021/10/01 11:22:30;;;;;;;2.50;2.30;;;;;;;;;;5120248;27;24484;-59
2021/10/01 11:24:59;;;;;;;5.00;1.80;;;;;;;;;;5119716;27;24481;-59
2021/10/01 11:27:24;;;;;;;1.67;1.58;;;;;;;;;;5120485;27;24425;-59
2021/10/01 11:29:50;;;;;;;1.67;1.57;;;;;;;;;;5122083;27;25038;-59
2021/10/01 11:32:22;;;;;;;1.77;1.60;;;;;;;;;;5124111;28;24385;-60
2021/10/01 11:34:49;;;;;;;2.10;1.50;;;;;;;;;;5117842;28;25038;-60
2021/10/01 11:37:24;;;;;;;2.17;1.60;;;;;;;;;;5118481;28;24409;-59
2021/10/01 11:39:49;;;;;;;1.55;1.45;;;;;;;;;;5122381;28;24389;-59
2021/10/01 11:42:40;;;;;;;2.17;1.60;;;;;;;;;;5124092;28;24454;-60
2021/10/01 11:45:15;;;;;;;2.10;1.50;;;;;;;;;;5119132;28;24550;-59
2021/10/01 11:47:48;;;;;;;2.55;1.80;;;;;;;;;;5119758;28;25217;-59
2021/10/01 11:50:13;;;;;;;2.83;1.60;;;;;;;;;;5117760;28;24828;-59
2021/10/01 11:52:45;;;;;;;2.90;1.50;;;;;;;;;;5118117;28;24937;-59
2021/10/01 11:55:12;;;;;;;1.80;1.70;;;;;;;;;;5119516;28;24413;-58
2021/10/01 11:57:38;;;;;;;1.88;1.70;;;;;;;;;;5121373;28;24424;-59
2021/10/01 12:00:05;;;;;;;1.90;1.63;;;;;;;;;;5119754;28;25262;-58
2021/10/01 12:02:35;;;;;;;1.63;1.52;;;;;;;;;;5122462;28;24408;-58
2021/10/01 12:05:19;;;;;;;2.20;1.70;;;;;;;;;;5119418;28;24454;-57
2021/10/01 12:07:51;;;;;;;1.70;1.60;;;;;;;;;;5117542;28;24397;-58
2021/10/01 12:10:17;;;;;;;2.10;1.90;;;;;;;;;;5117392;27;24413;-58
2021/10/01 12:13:01;;;;;;;2.00;1.67;;;;;;;;;;5127402;27;24523;-59
2021/10/01 12:15:36;;;;;;;1.98;1.80;;;;;;;;;;5127096;27;24411;-58
2021/10/01 12:18:03;;;;;;;2.90;1.70;;;;;;;;;;5105026;27;24974;-58
2021/10/01 12:20:28;;;;;;;2.50;2.30;;;;;;;;;;5121827;27;24429;-58
2021/10/01 12:22:53;;;;;;;1.80;1.70;;;;;;;;;;5123590;27;24761;-58
2021/10/01 12:25:25;;;;;;;2.00;1.90;;;;;;;;;;5127335;27;24405;-58
2021/10/01 12:27:50;;;;;;;2.90;2.10;;;;;;;;;;5125521;27;24962;-59
2021/10/01 12:30:16;;;;;;;2.10;1.90;;;;;;;;;;5127088;27;24410;-58
2021/10/01 12:32:41;;;;;;;2.40;2.07;;;;;;;;;;5123666;27;24393;-58
2021/10/01 12:35:07;;;;;;;2.70;2.50;;;;;;;;;;5120895;27;24516;-58
2021/10/01 12:37:40;;;;;;;4.07;2.60;;;;;;;;;;5123437;27;24377;-62
2021/10/01 12:40:06;;;;;;;2.53;2.00;;;;;;;;;;5126860;27;24932;-58
2021/10/01 12:42:33;;;;;;;2.90;2.20;;;;;;;;;;5126742;27;24462;-58
2021/10/01 12:45:07;;;;;;;2.60;2.40;;;;;;;;;;5127077;27;24538;-58
2021/10/01 12:47:33;;;;;;;3.60;2.70;;;;;;;;;;5123336;27;25126;-58
2021/10/01 12:50:04;;;;;;;2.90;2.30;;;;;;;;;;5121624;27;24420;-58
2021/10/01 12:52:30;;;;;;;3.30;3.00;;;;;;;;;;5125416;27;24385;-58
2021/10/01 12:54:59;;;;;;;4.00;2.63;;;;;;;;;;5126202;27;24420;-58
2021/10/01 12:57:35;;;;;;;3.30;3.00;;;;;;;;;;5126819;27;24515;-58
2021/10/01 13:00:00;;;;;;;4.00;3.00;;;;;;;;;;5126667;27;24744;-59
2021/10/01 13:02:27;;;;;;;4.53;3.83;;;;;;;;;;5126654;27;24435;-59
2021/10/01 13:05:03;;;;;;;3.50;3.20;;;;;;;;;;5121263;27;24449;-58
2021/10/01 13:07:41;;;;;;;5.90;3.60;;;;;;;;;;5122608;27;24408;-58
2021/10/01 13:10:12;;;;;;;5.30;3.53;;;;;;;;;;5126122;27;24424;-58
2021/10/01 13:12:44;;;;;;;3.40;3.10;;;;;;;;;;5124364;27;24940;-60
2021/10/01 13:15:09;;;;;;;5.68;3.83;;;;;;;;;;5126033;27;24413;-60
2021/10/01 13:17:34;;;;;;;3.72;3.42;;;;;;;;;;5124428;27;24438;-60
2021/10/01 13:20:00;;;;;;;4.77;4.10;;;;;;;;;;5120212;27;24381;-60
2021/10/01 13:22:25;;;;;;;3.97;3.50;;;;;;;;;;5121710;27;24401;-60
2021/10/01 13:24:56;;;;;;;4.20;3.80;;;;;;;;;;5124257;27;24712;-60
2021/10/01 13:27:22;;;;;;;5.40;4.10;;;;;;;;;;5125159;27;25200;-60
2021/10/01 13:29:47;;;;;;;6.05;4.13;;;;;;;;;;5123156;27;24421;-58
2021/10/01 13:32:12;;;;;;;4.28;3.88;;;;;;;;;;5121140;27;24795;-59
2021/10/01 13:34:38;;;;;;;4.10;3.60;;;;;;;;;;5121840;27;24468;-57
2021/10/01 13:37:03;;;;;;;3.80;3.40;;;;;;;;;;5108229;27;25135;-58
2021/10/01 13:39:28;;;;;;;3.90;3.50;;;;;;;;;;5124877;27;24901;-58
2021/10/01 13:41:53;;;;;;;5.10;4.00;;;;;;;;;;5122748;27;24698;-58
2021/10/01 13:44:19;;;;;;;4.20;3.80;;;;;;;;;;5120099;27;25047;-58
2021/10/01 13:46:44;;;;;;;4.60;3.90;;;;;;;;;;5115988;27;24417;-59
2021/10/01 13:49:09;;;;;;;3.78;3.38;;;;;;;;;;5117842;27;24432;-58
2021/10/01 13:51:34;;;;;;;4.20;3.80;;;;;;;;;;5120285;27;24405;-59
2021/10/01 13:54:00;;;;;;;4.90;4.30;;;;;;;;;;5121154;27;24428;-59
2021/10/01 13:56:25;;;;;;;4.07;3.50;;;;;;;;;;5109404;27;25235;-59
2021/10/01 13:58:50;;;;;;;3.73;3.43;;;;;;;;;;5115950;27;24428;-59
2021/10/01 14:01:16;;;;;;;3.80;3.50;;;;;;;;;;5119869;27;24464;-58
2021/10/01 14:03:41;;;;;;;4.97;3.63;;;;;;;;;;5119671;27;25240;-59
2021/10/01 14:06:06;;;;;;;3.80;3.50;;;;;;;;;;5120407;27;24413;-58
2021/10/01 14:08:31;;;;;;;3.50;3.20;;;;;;;;;;5118941;27;24461;-58
2021/10/01 14:10:56;;;;;;;5.60;3.70;;;;;;;;;;5115987;27;24504;-59
2021/10/01 14:13:22;;;;;;;4.23;3.80;;;;;;;;;;5117080;27;24416;-58
2021/10/01 14:15:48;;;;;;;3.95;3.55;;;;;;;;;;5117520;27;24809;-58
2021/10/01 14:18:13;;;;;;;3.60;3.30;;;;;;;;;;5120258;27;24412;-58
2021/10/01 14:20:39;;;;;;;3.70;3.40;;;;;;;;;;5116781;27;24432;-59
2021/10/01 14:23:04;;;;;;;3.40;3.10;;;;;;;;;;5119903;27;24397;-59
2021/10/01 14:25:30;;;;;;;5.10;2.93;;;;;;;;;;5118014;27;24417;-58
2021/10/01 14:27:58;;;;;;;3.60;3.10;;;;;;;;;;5101254;28;24443;-60
2021/10/01 14:30:26;;;;;;;3.55;3.20;;;;;;;;;;5099983;28;24389;-58
2021/10/01 14:32:52;;;;;;;6.20;3.30;;;;;;;;;;5097902;28;24458;-58
2021/10/01 14:35:18;;;;;;;3.03;2.80;;;;;;;;;;5098551;28;25062;-58
2021/10/01 14:37:43;;;;;;;2.70;2.50;;;;;;;;;;5103230;28;24428;-59
2021/10/01 14:40:09;;;;;;;3.63;3.10;;;;;;;;;;5103401;28;24397;-59
2021/10/01 14:42:34;;;;;;;2.93;2.70;;;;;;;;;;5120780;27;24549;-58
2021/10/01 14:44:59;;;;;;;5.27;3.43;;;;;;;;;;5118105;27;24940;-59
2021/10/01 14:47:30;;;;;;;3.80;3.40;;;;;;;;;;5120554;27;24936;-59
2021/10/01 14:49:59;;;;;;;3.40;3.10;;;;;;;;;;5120283;27;24447;-59
2021/10/01 14:52:24;;;;;;;3.00;2.80;;;;;;;;;;5124215;27;24459;-58
2021/10/01 14:54:49;;;;;;;3.40;3.10;;;;;;;;;;5121824;27;24430;-59
2021/10/01 14:57:14;;;;;;;2.90;2.60;;;;;;;;;;5123359;27;25008;-59
2021/10/01 14:59:39;;;;;;;3.55;3.00;;;;;;;;;;5117912;27;24976;-59
2021/10/01 15:02:06;;;;;;;3.60;3.30;;;;;;;;;;5118309;27;24408;-61
2021/10/01 15:04:31;;;;;;;2.97;2.67;;;;;;;;;;5121815;27;24380;-59
2021/10/01 15:06:57;;;;;;;4.40;3.13;;;;;;;;;;5101308;27;24425;-58
2021/10/01 15:09:22;;;;;;;3.50;3.20;;;;;;;;;;5104671;27;24971;-58
2021/10/01 15:11:47;;;;;;;4.00;3.10;;;;;;;;;;5121679;27;24393;-59
2021/10/01 15:14:12;;;;;;;3.40;3.10;;;;;;;;;;5123769;27;24496;-59
2021/10/01 15:16:37;;;;;;;4.10;2.97;;;;;;;;;;5117721;27;24485;-60
2021/10/01 15:19:02;;;;;;;3.67;2.80;;;;;;;;;;5118981;27;24516;-59
2021/10/01 15:21:28;;;;;;;3.10;2.80;;;;;;;;;;5121186;27;24428;-58
2021/10/01 15:23:53;;;;;;;2.90;2.60;;;;;;;;;;5121639;27;24433;-58
2021/10/01 15:26:18;;;;;;;4.00;3.10;;;;;;;;;;5121316;27;24419;-58
2021/10/01 15:28:43;;;;;;;2.60;2.40;;;;;;;;;;5121887;27;24397;-58
2021/10/01 15:31:09;;;;;;;3.50;2.77;;;;;;;;;;5117036;27;24967;-59
2021/10/01 15:33:34;;;;;;;5.00;3.20;;;;;;;;;;5118201;28;24507;-59
2021/10/01 15:35:59;;;;;;;3.70;3.20;;;;;;;;;;5121110;28;25058;-59
2021/10/01 15:38:25;;;;;;;3.30;2.90;;;;;;;;;;5120994;28;24421;-58
2021/10/01 15:40:51;;;;;;;2.63;2.42;;;;;;;;;;5121671;28;24464;-59
2021/10/01 15:43:17;;;;;;;3.03;2.50;;;;;;;;;;5122826;28;24516;-60
2021/10/01 15:45:43;;;;;;;3.80;3.10;;;;;;;;;;5118956;27;24542;-59
2021/10/01 15:48:09;;;;;;;3.55;2.83;;;;;;;;;;5120368;27;24409;-59
2021/10/01 15:50:35;;;;;;;2.60;2.40;;;;;;;;;;5123908;27;24760;-59
2021/10/01 15:53:00;;;;;;;2.70;2.50;;;;;;;;;;5120482;27;24508;-59
2021/10/01 15:55:25;;;;;;;2.90;2.70;;;;;;;;;;5113766;27;24873;-59
2021/10/01 15:57:51;;;;;;;3.10;2.90;;;;;;;;;;5118549;27;24404;-59
2021/10/01 16:00:18;;;;;;;5.20;2.60;;;;;;;;;;5118091;27;24398;-59
2021/10/01 16:02:43;;;;;;;4.05;2.90;;;;;;;;;;5109048;27;24432;-59
2021/10/01 16:05:09;;;;;;;2.90;2.60;;;;;;;;;;5124039;27;24955;-59
2021/10/01 16:07:35;;;;;;;2.90;2.70;;;;;;;;;;5121527;27;24818;-59
2021/10/01 16:10:00;;;;;;;5.53;2.75;;;;;;;;;;5122300;27;24932;-59
2021/10/01 16:12:25;;;;;;;4.23;3.43;;;;;;;;;;5119449;27;24400;-59
2021/10/01 16:14:50;;;;;;;3.50;3.20;;;;;;;;;;5122245;27;24409;-60